Time;durP1;ratioP1;P1;durP2;ratioP2;P2;SDS_P1;SDS_P2;PMS_P1;PMS_P2;Temp;Humidity;BMP_temperature;BMP_pressure;BME280_temperature;BME280_humidity;BME280_pressure;Samples;Min_cycle;Max_cycle;Signal;HPM_P1;HPM_P2
2023/05/02 00:00:37;;;;;;;13.68;5.20;;;;;;;;;;4966653;28;20690;-72
2023/05/02 00:03:04;;;;;;;11.68;4.70;;;11.20;99.90;;;;;;4963539;28;20381;-72
2023/05/02 00:05:31;;;;;;;19.88;6.28;;;;;;;;;;4963650;28;20065;-73
2023/05/02 00:07:57;;;;;;;13.60;4.50;;;;;;;;;;4980425;28;20585;-72
2023/05/02 00:10:23;;;;;;;18.42;4.93;;;;;;;;;;4967440;28;20051;-72
2023/05/02 00:12:48;;;;;;;14.90;4.20;;;11.00;99.90;;;;;;4980268;28;20057;-72
2023/05/02 00:15:14;;;;;;;8.90;4.22;;;11.10;99.90;;;;;;4965894;28;20070;-72
2023/05/02 00:17:41;;;;;;;12.65;4.47;;;;;;;;;;4981777;28;20034;-72
2023/05/02 00:20:08;;;;;;;8.23;4.00;;;;;;;;;;4962079;28;20499;-72
2023/05/02 00:22:34;;;;;;;12.77;3.53;;;;;;;;;;4982770;28;20038;-73
2023/05/02 00:25:00;;;;;;;18.83;4.40;;;;;;;;;;4978706;28;20776;-73
2023/05/02 00:27:26;;;;;;;9.68;3.75;;;10.80;99.90;;;;;;4982620;28;20049;-72
2023/05/02 00:29:53;;;;;;;13.68;4.18;;;;;;;;;;4968528;28;20046;-73
2023/05/02 00:32:19;;;;;;;11.10;3.35;;;;;;;;;;4981650;28;20105;-72
2023/05/02 00:34:45;;;;;;;9.25;3.33;;;;;;;;;;4985711;28;20046;-72
2023/05/02 00:37:12;;;;;;;9.93;3.42;;;;;;;;;;4947196;28;20043;-73
2023/05/02 00:39:38;;;;;;;10.52;3.85;;;;;;;;;;4970503;28;20052;-72
2023/05/02 00:42:04;;;;;;;13.77;4.55;;;10.90;99.90;;;;;;4981117;28;20050;-72
2023/05/02 00:44:30;;;;;;;8.25;3.20;;;10.70;99.90;;;;;;4983178;28;20043;-72
2023/05/02 00:46:56;;;;;;;11.90;3.53;;;;;;;;;;4963846;28;20039;-72
2023/05/02 00:49:22;;;;;;;9.48;4.45;;;;;;;;;;4961778;28;20389;-72
2023/05/02 00:51:48;;;;;;;10.48;3.38;;;;;;;;;;4965521;28;20047;-72
2023/05/02 00:54:14;;;;;;;7.75;2.95;;;10.60;99.90;;;;;;4960018;28;20057;-72
2023/05/02 00:56:40;;;;;;;15.65;3.58;;;10.60;99.90;;;;;;4963140;28;20046;-72
2023/05/02 00:59:08;;;;;;;6.47;3.30;;;10.70;99.90;;;;;;4983197;28;20134;-72
2023/05/02 01:01:59;;;;;;;6.95;3.15;;;10.60;99.90;;;;;;4961698;28;20061;-72
2023/05/02 01:04:49;;;;;;;8.32;3.15;;;10.70;99.90;;;;;;4957638;28;20537;-72
2023/05/02 01:07:22;;;;;;;18.83;5.30;;;10.40;99.90;;;;;;4967355;28;20492;-72
2023/05/02 01:10:04;;;;;;;10.27;3.50;;;;;;;;;;4962086;28;20483;-72
2023/05/02 01:12:46;;;;;;;8.02;2.80;;;;;;;;;;4965527;28;20069;-73
2023/05/02 01:15:16;;;;;;;10.55;3.17;;;;;;;;;;4967373;28;20046;-73
2023/05/02 01:17:43;;;;;;;8.20;3.17;;;;;;;;;;4966766;28;20046;-73
2023/05/02 01:20:11;;;;;;;9.02;2.40;;;;;;;;;;4966312;28;20050;-72
2023/05/02 01:22:41;;;;;;;7.18;2.72;;;10.30;99.90;;;;;;4959471;28;20042;-72
2023/05/02 01:25:16;;;;;;;4.35;2.35;;;10.20;99.90;;;;;;4962373;28;20074;-73
2023/05/02 01:27:42;;;;;;;8.77;3.00;;;;;;;;;;4966868;28;20046;-73
2023/05/02 01:30:08;;;;;;;7.68;2.58;;;10.20;99.90;;;;;;4965701;28;20097;-72
2023/05/02 01:32:36;;;;;;;7.53;2.72;;;;;;;;;;4964466;28;20080;-72
2023/05/02 01:35:04;;;;;;;8.77;3.00;;;;;;;;;;4965228;28;20053;-72
2023/05/02 01:37:30;;;;;;;6.90;2.38;;;10.20;99.90;;;;;;4967249;28;20138;-73
2023/05/02 01:39:57;;;;;;;4.50;2.90;;;10.30;99.90;;;;;;4946101;28;20088;-72
2023/05/02 01:42:24;;;;;;;6.05;3.03;;;;;;;;;;4981355;28;20050;-72
2023/05/02 01:44:52;;;;;;;7.03;2.40;;;10.30;99.90;;;;;;4962138;28;20077;-73
2023/05/02 01:47:19;;;;;;;9.57;2.80;;;;;;;;;;4971398;28;20057;-72
2023/05/02 01:49:46;;;;;;;5.97;2.45;;;10.20;99.90;;;;;;4962614;28;20130;-72
2023/05/02 01:52:15;;;;;;;7.70;3.15;;;10.30;99.90;;;;;;4967996;28;20377;-72
2023/05/02 01:54:41;;;;;;;7.05;3.15;;;10.30;99.90;;;;;;4962044;28;20086;-72
2023/05/02 01:57:09;;;;;;;6.10;2.30;;;10.50;99.90;;;;;;4968251;28;20054;-72
2023/05/02 01:59:36;;;;;;;7.18;2.53;;;10.30;99.90;;;;;;4961587;28;20055;-73
2023/05/02 02:02:04;;;;;;;6.00;2.65;;;10.40;99.90;;;;;;4981614;28;20551;-73
2023/05/02 02:04:31;;;;;;;7.63;3.30;;;;;;;;;;4943396;28;20417;-72
2023/05/02 02:07:06;;;;;;;6.20;3.08;;;;;;;;;;4964970;28;20049;-72
2023/05/02 02:09:32;;;;;;;8.82;3.33;;;;;;;;;;4961750;28;20038;-72
2023/05/02 02:12:11;;;;;;;11.73;3.60;;;10.30;99.90;;;;;;4966830;28;20096;-73
2023/05/02 02:14:41;;;;;;;16.45;4.38;;;10.20;99.90;;;;;;4967913;28;20053;-72
2023/05/02 02:17:23;;;;;;;18.88;5.10;;;;;;;;;;4961772;28;20054;-72
2023/05/02 02:19:53;;;;;;;16.60;4.78;;;;;;;;;;4963663;28;20054;-72
2023/05/02 02:22:20;;;;;;;19.02;4.80;;;9.90;99.90;;;;;;4961443;28;20054;-72
2023/05/02 02:24:47;;;;;;;18.48;5.07;;;9.90;99.90;;;;;;4977470;28;20503;-72
2023/05/02 02:27:13;;;;;;;21.42;4.97;;;;;;;;;;4959456;28;20149;-72
2023/05/02 02:29:39;;;;;;;17.23;4.55;;;9.80;99.90;;;;;;4956950;28;20074;-72
2023/05/02 02:32:05;;;;;;;15.60;4.82;;;;;;;;;;4963634;28;20054;-72
2023/05/02 02:34:31;;;;;;;13.73;4.57;;;;;;;;;;4983837;28;20047;-72
2023/05/02 02:37:18;;;;;;;16.05;4.82;;;9.70;99.90;;;;;;4969080;28;20042;-72
2023/05/02 02:40:03;;;;;;;17.80;4.93;;;;;;;;;;4963024;28;20042;-73
2023/05/02 02:42:38;;;;;;;14.65;4.85;;;;;;;;;;4960799;28;20058;-73
2023/05/02 02:45:41;;;;;;;20.15;4.93;;;9.60;99.90;;;;;;4986129;28;20042;-73
2023/05/02 02:48:13;;;;;;;21.92;4.82;;;;;;;;;;4982574;28;20046;-72
2023/05/02 02:51:02;;;;;;;16.60;5.10;;;9.60;99.90;;;;;;4981901;28;20056;-72
2023/05/02 02:54:01;;;;;;;23.48;4.90;;;9.70;99.90;;;;;;4963136;28;20038;-72
2023/05/02 02:56:35;;;;;;;16.60;4.35;;;9.50;99.90;;;;;;4935318;28;20405;-72
2023/05/02 02:59:19;;;;;;;19.33;4.57;;;9.60;99.90;;;;;;4959360;28;20055;-72
2023/05/02 03:01:54;;;;;;;15.65;4.45;;;9.20;99.90;;;;;;4963696;28;20070;-72
2023/05/02 03:04:22;;;;;;;19.90;4.25;;;;;;;;;;4978961;28;20053;-72
2023/05/02 03:06:48;;;;;;;22.42;4.88;;;;;;;;;;4958459;28;20042;-72
2023/05/02 03:09:18;;;;;;;19.13;5.07;;;;;;;;;;4981503;28;20046;-73
2023/05/02 03:11:47;;;;;;;21.98;4.65;;;;;;;;;;4962246;28;20100;-72
2023/05/02 03:14:12;;;;;;;13.95;4.65;;;9.20;99.90;;;;;;4965419;28;20445;-72
2023/05/02 03:16:39;;;;;;;17.95;4.60;;;;;;;;;;4963813;28;20093;-72
2023/05/02 03:19:06;;;;;;;19.33;5.25;;;9.20;99.90;;;;;;4967424;28;20050;-72
2023/05/02 03:21:32;;;;;;;19.52;3.95;;;;;;;;;;4974783;28;20101;-72
2023/05/02 03:23:59;;;;;;;21.85;4.20;;;;;;;;;;4979389;28;20030;-72
2023/05/02 03:26:26;;;;;;;15.93;3.72;;;9.10;99.90;;;;;;4960179;28;20078;-72
2023/05/02 03:28:52;;;;;;;21.65;4.28;;;;;;;;;;4960441;28;20109;-73
2023/05/02 03:31:17;;;;;;;19.70;4.32;;;9.00;99.90;;;;;;4962475;28;20097;-72
2023/05/02 03:33:44;;;;;;;19.95;4.28;;;;;;;;;;4979833;28;20725;-72
2023/05/02 03:36:10;;;;;;;17.10;4.32;;;;;;;;;;4964938;28;20046;-73
2023/05/02 03:38:36;;;;;;;12.23;3.33;;;;;;;;;;4955993;28;20043;-72
2023/05/02 03:41:02;;;;;;;12.52;4.25;;;;;;;;;;4961969;28;20046;-72
2023/05/02 03:43:29;;;;;;;16.00;3.67;;;8.80;99.90;;;;;;4979974;28;20050;-72
2023/05/02 03:45:55;;;;;;;15.57;4.05;;;;;;;;;;4961992;28;20081;-72
2023/05/02 03:48:21;;;;;;;16.45;4.43;;;;;;;;;;4973621;28;20073;-72
2023/05/02 03:50:48;;;;;;;19.98;3.90;;;;;;;;;;4960967;28;20048;-73
2023/05/02 03:53:15;;;;;;;14.55;3.75;;;;;;;;;;4980359;28;20053;-72
2023/05/02 03:55:41;;;;;;;16.08;3.50;;;;;;;;;;4964732;28;20062;-72
2023/05/02 03:58:07;;;;;;;16.33;3.55;;;;;;;;;;4960238;28;20047;-72
2023/05/02 04:00:33;;;;;;;15.50;3.88;;;;;;;;;;4960142;28;20050;-72
2023/05/02 04:03:02;;;;;;;14.80;3.50;;;;;;;;;;4976890;28;20097;-72
2023/05/02 04:05:28;;;;;;;13.25;3.47;;;8.70;99.90;;;;;;4962750;28;20097;-72
2023/05/02 04:07:55;;;;;;;16.05;3.30;;;;;;;;;;4963744;28;20042;-72
2023/05/02 04:10:21;;;;;;;17.52;4.30;;;;;;;;;;4981207;28;20492;-72
2023/05/02 04:12:46;;;;;;;11.77;3.20;;;8.60;99.90;;;;;;4960921;28;20053;-72
2023/05/02 04:15:12;;;;;;;23.00;3.55;;;;;;;;;;4964647;28;20606;-72
2023/05/02 04:17:38;;;;;;;14.55;2.95;;;;;;;;;;4961125;28;20047;-72
2023/05/02 04:20:05;;;;;;;17.80;3.95;;;;;;;;;;4956970;28;20066;-72
2023/05/02 04:22:32;;;;;;;8.50;3.17;;;;;;;;;;4964278;28;20050;-72
2023/05/02 04:24:58;;;;;;;14.98;3.03;;;;;;;;;;4963585;28;20101;-72
2023/05/02 04:27:24;;;;;;;13.02;3.47;;;;;;;;;;4960241;28;20500;-72
2023/05/02 04:29:50;;;;;;;11.00;3.10;;;;;;;;;;4974805;28;20049;-72
2023/05/02 04:32:16;;;;;;;12.90;2.97;;;;;;;;;;4959486;28;20057;-72
2023/05/02 04:34:42;;;;;;;9.45;3.85;;;8.60;99.90;;;;;;4979814;28;20047;-72
2023/05/02 04:37:08;;;;;;;10.30;3.03;;;;;;;;;;4968816;28;20719;-72
2023/05/02 04:39:34;;;;;;;11.02;2.75;;;;;;;;;;4978376;28;20121;-72
2023/05/02 04:42:00;;;;;;;14.27;2.92;;;;;;;;;;4960470;28;20497;-72
2023/05/02 04:44:26;;;;;;;10.85;2.83;;;;;;;;;;4967969;28;20538;-72
2023/05/02 04:46:52;;;;;;;10.90;2.83;;;;;;;;;;4968062;28;20113;-72
2023/05/02 04:49:18;;;;;;;6.43;2.72;;;;;;;;;;4965194;28;20050;-72
2023/05/02 04:51:44;;;;;;;13.52;2.80;;;;;;;;;;4949755;28;20046;-73
2023/05/02 04:54:10;;;;;;;12.57;2.60;;;;;;;;;;4963400;28;20511;-72
2023/05/02 04:56:36;;;;;;;11.77;2.47;;;;;;;;;;4983256;28;20551;-72
2023/05/02 04:59:02;;;;;;;5.82;2.53;;;;;;;;;;4961989;28;20043;-72
2023/05/02 05:01:28;;;;;;;5.82;2.25;;;;;;;;;;4962490;28;20053;-72
2023/05/02 05:03:55;;;;;;;8.48;2.85;;;8.30;99.90;;;;;;4961963;28;20452;-72
2023/05/02 05:06:21;;;;;;;8.98;2.15;;;;;;;;;;4962044;28;20080;-72
2023/05/02 05:08:47;;;;;;;6.38;2.22;;;;;;;;;;4964800;28;20583;-72
2023/05/02 05:11:14;;;;;;;7.10;2.83;;;;;;;;;;4968725;28;20493;-72
2023/05/02 05:13:40;;;;;;;5.57;2.63;;;8.50;99.90;;;;;;4960767;28;20047;-72
2023/05/02 05:16:06;;;;;;;9.85;2.50;;;8.50;99.90;;;;;;4981937;28;20421;-73
2023/05/02 05:18:39;;;;;;;7.22;3.40;;;;;;;;;;4960439;28;20042;-72
2023/05/02 05:21:08;;;;;;;8.05;2.17;;;8.60;99.90;;;;;;4974940;28;20050;-73
2023/05/02 05:23:34;;;;;;;10.88;3.35;;;9.50;99.90;;;;;;4965530;28;20497;-72
2023/05/02 05:26:15;;;;;;;9.93;2.15;;;8.50;99.90;;;;;;4961554;28;20050;-73
2023/05/02 05:28:42;;;;;;;15.63;2.83;;;;;;;;;;4963174;28;20042;-72
2023/05/02 05:31:09;;;;;;;8.15;2.08;;;;;;;;;;4961159;28;20449;-73
2023/05/02 05:33:35;;;;;;;9.93;2.00;;;8.70;99.90;;;;;;4985067;28;20046;-72
2023/05/02 05:36:08;;;;;;;12.05;2.65;;;;;;;;;;4965793;28;20084;-72
2023/05/02 05:38:34;;;;;;;7.32;2.30;;;;;;;;;;4986288;28;20070;-73
2023/05/02 05:41:00;;;;;;;16.20;3.08;;;;;;;;;;4966336;28;20195;-72
2023/05/02 05:43:26;;;;;;;6.72;2.53;;;;;;;;;;4965892;28;20054;-72
2023/05/02 05:45:53;;;;;;;11.90;2.72;;;;;;;;;;4981397;28;20085;-72
2023/05/02 05:48:19;;;;;;;7.97;2.60;;;;;;;;;;4979602;28;20086;-72
2023/05/02 05:50:45;;;;;;;7.82;2.50;;;;;;;;;;4980172;28;20050;-72
2023/05/02 05:53:12;;;;;;;11.27;2.50;;;;;;;;;;4948546;28;20046;-72
2023/05/02 05:55:38;;;;;;;16.70;3.40;;;;;;;;;;4958504;28;20046;-72
2023/05/02 05:58:04;;;;;;;10.48;2.60;;;;;;;;;;4959519;28;20042;-72
2023/05/02 06:00:31;;;;;;;7.78;2.72;;;;;;;;;;4959694;28;20051;-72
2023/05/02 06:02:57;;;;;;;10.68;3.05;;;;;;;;;;4961399;28;20141;-72
2023/05/02 06:05:23;;;;;;;7.38;2.50;;;;;;;;;;4981224;28;20129;-72
2023/05/02 06:07:49;;;;;;;10.82;2.00;;;;;;;;;;4957285;28;20464;-72
2023/05/02 06:10:15;;;;;;;10.07;2.60;;;;;;;;;;4966698;28;20038;-72
2023/05/02 06:12:40;;;;;;;8.13;2.60;;;;;;;;;;4959970;28;20042;-73
2023/05/02 06:15:06;;;;;;;6.80;2.50;;;9.60;99.90;;;;;;4965761;28;20053;-72
2023/05/02 06:17:32;;;;;;;9.75;2.15;;;;;;;;;;4961647;28;20089;-72
2023/05/02 06:19:58;;;;;;;9.63;2.65;;;;;;;;;;4965074;28;20077;-73
2023/05/02 06:22:24;;;;;;;6.68;2.35;;;;;;;;;;4977606;28;20043;-72
2023/05/02 06:24:50;;;;;;;8.43;1.95;;;;;;;;;;4964334;28;20052;-73
2023/05/02 06:27:16;;;;;;;5.63;2.65;;;;;;;;;;4963859;28;20409;-73
2023/05/02 06:29:42;;;;;;;11.98;3.58;;;;;;;;;;4967139;28;20048;-72
2023/05/02 06:32:08;;;;;;;7.15;2.25;;;;;;;;;;4984932;28;20042;-72
2023/05/02 06:34:35;;;;;;;8.18;2.25;;;;;;;;;;4978687;28;20058;-71
2023/05/02 06:37:01;;;;;;;7.43;3.00;;;;;;;;;;4963172;28;20057;-70
2023/05/02 06:39:26;;;;;;;6.18;2.60;;;9.40;99.90;;;;;;4960247;28;20133;-70
2023/05/02 06:41:57;;;;;;;10.82;2.38;;;9.40;99.90;;;;;;4960423;28;20061;-70
2023/05/02 06:44:23;;;;;;;5.97;2.40;;;;;;;;;;4958748;28;20047;-69
2023/05/02 06:46:49;;;;;;;6.32;2.35;;;;;;;;;;4960136;28;20053;-70
2023/05/02 06:49:15;;;;;;;6.05;2.15;;;;;;;;;;4963326;28;20572;-70
2023/05/02 06:51:41;;;;;;;11.93;2.58;;;;;;;;;;4958465;28;20502;-69
2023/05/02 06:54:07;;;;;;;6.55;2.47;;;9.30;99.90;;;;;;4958210;28;20038;-70
2023/05/02 06:56:33;;;;;;;11.05;2.90;;;;;;;;;;4961624;28;20057;-69
2023/05/02 06:58:59;;;;;;;11.48;5.00;;;;;;;;;;4957206;28;20069;-70
2023/05/02 07:01:25;;;;;;;9.65;2.67;;;9.40;99.90;;;;;;4979205;28;20409;-70
2023/05/02 07:03:51;;;;;;;17.48;3.83;;;;;;;;;;4972636;28;20043;-70
2023/05/02 07:06:17;;;;;;;8.73;2.70;;;;;;;;;;4973246;28;20057;-70
2023/05/02 07:08:43;;;;;;;9.52;2.53;;;;;;;;;;4954565;28;20046;-69
2023/05/02 07:11:09;;;;;;;10.13;2.92;;;;;;;;;;4963265;28;20077;-70
2023/05/02 07:13:35;;;;;;;7.22;2.33;;;;;;;;;;4959393;28;20085;-69
2023/05/02 07:16:01;;;;;;;9.43;3.05;;;;;;;;;;4942076;28;20130;-69
2023/05/02 07:18:27;;;;;;;5.82;2.33;;;;;;;;;;4960443;28;20753;-69
2023/05/02 07:20:54;;;;;;;8.98;2.58;;;;;;;;;;4955163;28;20054;-69
2023/05/02 07:23:20;;;;;;;10.55;2.40;;;;;;;;;;4975965;28;20082;-70
2023/05/02 07:25:47;;;;;;;8.48;2.70;;;;;;;;;;4961684;28;20051;-69
2023/05/02 07:28:13;;;;;;;8.68;2.85;;;;;;;;;;4959139;28;20046;-69
2023/05/02 07:30:39;;;;;;;11.63;2.45;;;;;;;;;;4961672;28;20050;-69
2023/05/02 07:33:05;;;;;;;12.40;2.63;;;;;;;;;;4980342;28;20046;-69
2023/05/02 07:35:31;;;;;;;8.60;2.55;;;;;;;;;;4977497;28;20050;-69
2023/05/02 07:37:57;;;;;;;10.45;3.08;;;;;;;;;;4978181;28;20093;-70
2023/05/02 07:40:23;;;;;;;9.77;3.22;;;;;;;;;;4964495;28;20129;-71
2023/05/02 07:42:49;;;;;;;9.77;2.58;;;;;;;;;;4977544;28;20090;-71
2023/05/02 07:45:16;;;;;;;11.45;2.97;;;;;;;;;;4963059;28;20050;-71
2023/05/02 07:47:41;;;;;;;12.30;3.53;;;9.40;99.90;;;;;;4962428;28;20042;-71
2023/05/02 07:50:08;;;;;;;11.10;2.47;;;;;;;;;;4965894;28;20038;-71
2023/05/02 07:52:34;;;;;;;14.07;3.40;;;;;;;;;;4964937;28;20053;-70
2023/05/02 07:55:00;;;;;;;9.23;2.67;;;;;;;;;;4986022;28;20579;-71
2023/05/02 07:57:26;;;;;;;12.30;2.80;;;;;;;;;;4968680;28;20038;-74
2023/05/02 07:59:51;;;;;;;9.88;2.60;;;9.20;99.90;;;;;;4980327;28;20046;-71
2023/05/02 08:02:19;;;;;;;5.80;2.70;;;;;;;;;;4965245;28;20054;-71
2023/05/02 08:04:46;;;;;;;9.98;3.08;;;;;;;;;;4982350;28;20468;-70
2023/05/02 08:07:12;;;;;;;8.43;2.90;;;;;;;;;;4969563;28;20046;-71
2023/05/02 08:09:38;;;;;;;15.82;3.60;;;;;;;;;;4986789;28;20042;-70
2023/05/02 08:12:04;;;;;;;8.80;2.75;;;;;;;;;;4969110;28;20797;-70
2023/05/02 08:14:30;;;;;;;13.30;3.60;;;;;;;;;;4968394;28;20050;-70
2023/05/02 08:16:57;;;;;;;7.55;2.65;;;;;;;;;;4983361;28;20057;-71
2023/05/02 08:19:22;;;;;;;8.38;2.63;;;9.60;99.90;;;;;;4966063;28;20053;-70
2023/05/02 08:21:48;;;;;;;11.75;2.55;;;9.60;99.90;;;;;;4968775;28;20046;-70
2023/05/02 08:24:14;;;;;;;6.20;3.00;;;;;;;;;;4968834;28;20042;-70
2023/05/02 08:26:40;;;;;;;9.13;3.10;;;;;;;;;;4970093;28;20133;-71
2023/05/02 08:29:06;;;;;;;14.50;3.08;;;;;;;;;;4989410;28;20132;-70
2023/05/02 08:31:32;;;;;;;9.15;3.22;;;;;;;;;;4970349;28;20065;-71
2023/05/02 08:33:58;;;;;;;8.82;2.60;;;9.90;99.90;;;;;;4986479;28;20423;-70
2023/05/02 08:36:25;;;;;;;13.20;3.00;;;;;;;;;;4968494;28;20049;-71
2023/05/02 08:38:50;;;;;;;8.27;3.45;;;;;;;;;;4970449;28;20492;-71
2023/05/02 08:41:17;;;;;;;7.07;2.70;;;;;;;;;;4966169;28;20065;-70
2023/05/02 08:43:44;;;;;;;7.35;2.58;;;10.30;99.90;;;;;;4967659;28;20543;-71
2023/05/02 08:46:11;;;;;;;7.30;2.80;;;;;;;;;;4963415;28;20405;-71
2023/05/02 08:48:37;;;;;;;11.27;2.63;;;;;;;;;;4967500;28;20477;-71
2023/05/02 08:51:04;;;;;;;9.80;2.47;;;;;;;;;;4985279;28;20038;-70
2023/05/02 08:53:33;;;;;;;12.50;3.03;;;;;;;;;;4963804;28;20090;-70
2023/05/02 08:55:59;;;;;;;6.03;2.22;;;10.40;99.90;;;;;;4967607;28;20054;-71
2023/05/02 08:58:25;;;;;;;8.73;2.55;;;;;;;;;;4988569;28;20042;-71
2023/05/02 09:00:51;;;;;;;9.63;2.60;;;;;;;;;;4965314;28;20525;-70
2023/05/02 09:03:23;;;;;;;7.05;2.13;;;;;;;;;;4984979;28;20053;-70
2023/05/02 09:05:54;;;;;;;10.55;2.17;;;;;;;;;;4985358;28;20065;-71
2023/05/02 09:08:23;;;;;;;8.68;2.65;;;;;;;;;;4983387;28;20057;-71
2023/05/02 09:10:50;;;;;;;5.78;2.03;;;;;;;;;;4965050;28;20057;-71
2023/05/02 09:13:33;;;;;;;5.60;2.50;;;;;;;;;;4981232;28;20086;-71
2023/05/02 09:16:03;;;;;;;10.60;2.42;;;;;;;;;;4974460;28;20242;-71
2023/05/02 09:18:30;;;;;;;8.50;2.80;;;;;;;;;;4959596;28;20054;-71
2023/05/02 09:21:00;;;;;;;7.22;2.83;;;;;;;;;;4969186;28;20046;-70
2023/05/02 09:23:36;;;;;;;7.90;1.98;;;;;;;;;;4963056;28;20207;-71
2023/05/02 09:26:10;;;;;;;8.50;2.50;;;10.40;99.90;;;;;;4966398;28;20050;-71
2023/05/02 09:28:41;;;;;;;6.47;2.13;;;10.60;99.90;;;;;;4970110;28;20044;-70
2023/05/02 09:31:11;;;;;;;4.90;2.10;;;;;;;;;;4964309;28;20113;-70
2023/05/02 09:33:38;;;;;;;10.65;2.47;;;10.50;99.90;;;;;;4982745;28;20038;-70
2023/05/02 09:36:05;;;;;;;4.50;1.90;;;;;;;;;;4966372;28;20042;-71
2023/05/02 09:38:31;;;;;;;4.75;1.83;;;;;;;;;;4984163;28;20046;-70
2023/05/02 09:40:58;;;;;;;9.88;2.15;;;;;;;;;;4983917;28;20065;-71
2023/05/02 09:43:25;;;;;;;6.30;2.20;;;;;;;;;;4963174;28;20050;-71
2023/05/02 09:45:58;;;;;;;8.73;2.28;;;;;;;;;;4969520;28;20054;-71
2023/05/02 09:48:26;;;;;;;3.17;1.60;;;11.40;99.90;;;;;;4966517;28;20121;-71
2023/05/02 09:50:53;;;;;;;7.63;2.25;;;;;;;;;;4983958;28;20756;-71
2023/05/02 09:53:19;;;;;;;4.50;1.55;;;;;;;;;;4966134;28;20050;-71
2023/05/02 09:55:45;;;;;;;7.75;2.13;;;;;;;;;;4960909;28;20386;-71
2023/05/02 09:58:21;;;;;;;7.57;2.00;;;;;;;;;;4963207;28;20043;-71
2023/05/02 10:00:47;;;;;;;7.72;2.05;;;;;;;;;;4952325;28;20088;-71
2023/05/02 10:03:16;;;;;;;4.88;1.90;;;11.30;99.90;;;;;;4963724;28;20053;-71
2023/05/02 10:05:43;;;;;;;5.90;2.05;;;;;;;;;;4967178;28;20093;-70
2023/05/02 10:08:09;;;;;;;4.65;1.65;;;;;;;;;;4947762;28;20058;-71
2023/05/02 10:10:47;;;;;;;4.10;2.08;;;;;;;;;;4965251;28;20370;-71
2023/05/02 10:13:13;;;;;;;7.22;1.77;;;;;;;;;;4962156;28;20050;-71
2023/05/02 10:15:43;;;;;;;11.88;2.30;;;11.20;99.90;;;;;;4966617;28;20385;-71
2023/05/02 10:18:14;;;;;;;5.53;1.95;;;;;;;;;;4982572;28;20038;-70
2023/05/02 10:20:43;;;;;;;4.75;1.75;;;;;;;;;;4966140;28;20133;-71
2023/05/02 10:23:10;;;;;;;7.78;1.80;;;;;;;;;;4982487;28;20054;-71
2023/05/02 10:25:36;;;;;;;3.25;1.58;;;;;;;;;;4964026;28;20405;-70
2023/05/02 10:28:03;;;;;;;4.90;1.10;;;;;;;;;;4982893;28;20049;-71
2023/05/02 10:30:29;;;;;;;5.88;1.50;;;11.50;99.90;;;;;;4963818;28;20496;-71
2023/05/02 10:32:58;;;;;;;4.45;1.90;;;11.80;99.90;;;;;;4965693;28;20050;-71
2023/05/02 10:35:25;;;;;;;2.03;1.20;;;;;;;;;;4981673;28;20034;-70
2023/05/02 10:37:51;;;;;;;6.95;1.58;;;11.60;99.90;;;;;;4962253;28;20046;-71
2023/05/02 10:40:17;;;;;;;4.07;1.52;;;;;;;;;;4947719;28;20053;-71
2023/05/02 10:42:45;;;;;;;5.60;1.27;;;;;;;;;;4979000;28;20050;-71
2023/05/02 10:45:31;;;;;;;2.38;1.23;;;;;;;;;;4966386;28;20038;-71
2023/05/02 10:48:20;;;;;;;3.97;1.20;;;12.00;99.90;;;;;;4962225;28;20078;-71
2023/05/02 10:50:51;;;;;;;6.20;1.48;;;;;;;;;;4964631;28;20038;-71
2023/05/02 10:53:30;;;;;;;3.75;1.25;;;;;;;;;;4985596;28;20782;-71
2023/05/02 10:56:14;;;;;;;4.75;1.52;;;;;;;;;;4965483;28;20057;-71
2023/05/02 10:58:40;;;;;;;5.93;1.58;;;;;;;;;;4945061;28;20097;-71
2023/05/02 11:01:27;;;;;;;4.63;1.60;;;12.00;99.90;;;;;;4963696;28;20467;-71
2023/05/02 11:03:56;;;;;;;6.25;1.30;;;12.00;99.90;;;;;;4962517;28;20162;-71
2023/05/02 11:06:23;;;;;;;6.97;1.83;;;12.30;99.90;;;;;;4964895;28;20563;-71
2023/05/02 11:08:50;;;;;;;5.20;1.27;;;;;;;;;;4965578;28;20047;-71
2023/05/02 11:11:41;;;;;;;3.30;1.45;;;12.60;99.90;;;;;;4982086;28;20077;-71
2023/05/02 11:14:08;;;;;;;3.10;1.20;;;;;;;;;;4957300;28;20049;-71
2023/05/02 11:16:58;;;;;;;2.38;1.02;;;12.60;99.90;;;;;;4957515;28;20046;-71
2023/05/02 11:19:28;;;;;;;2.90;1.20;;;12.50;99.90;;;;;;4966048;28;20140;-71
2023/05/02 11:22:26;;;;;;;4.00;1.20;;;12.40;99.90;;;;;;4949942;28;20101;-71
2023/05/02 11:24:52;;;;;;;2.97;1.33;;;;;;;;;;4967416;28;20050;-71
2023/05/02 11:27:30;;;;;;;2.25;1.20;;;12.10;99.90;;;;;;4966592;28;20050;-71
2023/05/02 11:29:56;;;;;;;1.60;1.10;;;;;;;;;;4979916;28;20035;-71
2023/05/02 11:32:24;;;;;;;3.10;1.00;;;;;;;;;;4964323;28;20073;-71
2023/05/02 11:34:51;;;;;;;4.03;1.25;;;12.40;99.90;;;;;;4961477;28;20107;-71
2023/05/02 11:37:18;;;;;;;3.47;1.77;;;12.30;99.90;;;;;;4964384;28;20133;-71
2023/05/02 11:39:45;;;;;;;4.03;1.60;;;;;;;;;;4986570;28;20042;-71
2023/05/02 11:42:32;;;;;;;8.43;1.60;;;12.10;99.90;;;;;;4966365;28;21262;-71
2023/05/02 11:44:59;;;;;;;7.47;1.83;;;;;;;;;;4990901;28;20493;-71
2023/05/02 11:47:26;;;;;;;2.75;1.13;;;11.90;99.90;;;;;;4969663;28;20082;-71
2023/05/02 11:49:55;;;;;;;4.43;1.50;;;;;;;;;;4970971;28;20070;-71
2023/05/02 11:52:21;;;;;;;3.58;1.40;;;11.80;99.90;;;;;;4965810;28;20065;-71
2023/05/02 11:54:47;;;;;;;5.28;2.05;;;;;;;;;;4968058;28;20421;-71
2023/05/02 11:57:14;;;;;;;4.65;1.88;;;;;;;;;;4966435;28;20501;-71
2023/05/02 11:59:53;;;;;;;6.80;1.70;;;11.90;99.90;;;;;;4965945;28;20531;-71
2023/05/02 12:02:33;;;;;;;6.03;2.05;;;11.80;99.90;;;;;;4968742;28;20058;-71
2023/05/02 12:04:59;;;;;;;4.47;1.50;;;;;;;;;;4960927;28;20042;-71
2023/05/02 12:07:35;;;;;;;5.88;1.65;;;;;;;;;;4982706;28;20049;-71
2023/05/02 12:10:01;;;;;;;6.43;1.88;;;;;;;;;;4975356;28;20053;-71
2023/05/02 12:12:27;;;;;;;10.48;1.88;;;;;;;;;;4964787;28;20467;-71
2023/05/02 12:14:53;;;;;;;7.13;1.88;;;;;;;;;;4963146;28;20046;-71
2023/05/02 12:17:20;;;;;;;3.70;2.00;;;;;;;;;;4970809;28;20089;-71
2023/05/02 12:19:47;;;;;;;5.43;2.15;;;;;;;;;;4967216;28;20062;-71
2023/05/02 12:22:14;;;;;;;2.13;1.30;;;11.80;99.90;;;;;;4989135;28;20054;-71
2023/05/02 12:24:40;;;;;;;3.95;1.60;;;;;;;;;;4964515;28;20718;-71
2023/05/02 12:27:16;;;;;;;5.57;1.63;;;;;;;;;;4968725;28;20561;-71
2023/05/02 12:29:43;;;;;;;8.13;2.33;;;11.60;99.90;;;;;;4970905;28;20046;-71
2023/05/02 12:32:10;;;;;;;4.18;1.63;;;;;;;;;;4963529;28;20050;-71
2023/05/02 12:34:36;;;;;;;7.40;2.38;;;;;;;;;;4967747;28;20054;-71
2023/05/02 12:37:03;;;;;;;4.75;1.90;;;;;;;;;;4983461;28;20062;-71
2023/05/02 12:39:42;;;;;;;4.32;1.60;;;;;;;;;;4978978;28;20405;-71
2023/05/02 12:42:11;;;;;;;4.57;1.38;;;;;;;;;;4963109;28;20072;-71
2023/05/02 12:44:39;;;;;;;3.97;2.25;;;11.90;99.90;;;;;;4986441;28;20054;-71
2023/05/02 12:47:06;;;;;;;5.78;1.90;;;;;;;;;;4968187;28;20050;-71
2023/05/02 12:49:32;;;;;;;4.80;2.22;;;;;;;;;;4966465;28;20108;-71
2023/05/02 12:51:59;;;;;;;6.45;1.80;;;;;;;;;;4986036;28;20054;-70
2023/05/02 12:54:25;;;;;;;5.10;1.92;;;11.60;99.90;;;;;;4965904;28;20081;-71
2023/05/02 12:56:51;;;;;;;7.55;2.13;;;;;;;;;;4961760;28;20050;-71
2023/05/02 12:59:27;;;;;;;10.15;2.17;;;;;;;;;;4984754;28;20462;-71
2023/05/02 13:01:53;;;;;;;3.45;2.20;;;;;;;;;;4958260;28;20536;-72
2023/05/02 13:04:19;;;;;;;7.47;2.25;;;11.70;99.90;;;;;;4970580;28;20060;-71
2023/05/02 13:06:45;;;;;;;4.63;2.25;;;;;;;;;;4954069;28;20088;-71
2023/05/02 13:09:11;;;;;;;7.75;1.80;;;;;;;;;;4962962;28;20070;-71
2023/05/02 13:11:38;;;;;;;7.40;1.73;;;;;;;;;;4967361;28;20038;-71
2023/05/02 13:14:04;;;;;;;5.65;1.88;;;;;;;;;;4964594;28;20053;-71
2023/05/02 13:16:32;;;;;;;4.25;1.70;;;;;;;;;;4967550;28;20068;-71
2023/05/02 13:18:58;;;;;;;8.65;2.15;;;;;;;;;;4966188;28;20120;-71
2023/05/02 13:21:24;;;;;;;6.40;1.90;;;;;;;;;;4956988;28;20042;-71
2023/05/02 13:23:50;;;;;;;4.78;1.60;;;11.90;99.90;;;;;;4959262;28;20054;-71
2023/05/02 13:26:16;;;;;;;4.65;1.60;;;;;;;;;;4962791;28;20469;-71
2023/05/02 13:28:42;;;;;;;4.15;1.90;;;;;;;;;;4960652;28;20038;-71
2023/05/02 13:31:08;;;;;;;3.40;1.05;;;;;;;;;;4965533;28;20046;-71
2023/05/02 13:33:34;;;;;;;3.05;1.20;;;;;;;;;;4987068;28;20042;-71
2023/05/02 13:36:00;;;;;;;4.90;1.25;;;11.80;99.90;;;;;;4963223;28;20051;-71
2023/05/02 13:38:26;;;;;;;5.60;1.58;;;;;;;;;;4982641;28;20448;-71
2023/05/02 13:40:52;;;;;;;5.25;1.58;;;;;;;;;;4944309;28;20505;-71
2023/05/02 13:43:18;;;;;;;4.55;1.40;;;;;;;;;;4960324;28;20137;-71
2023/05/02 13:45:47;;;;;;;3.50;1.27;;;;;;;;;;4963280;28;20074;-71
2023/05/02 13:48:14;;;;;;;3.30;1.10;;;;;;;;;;4984025;28;20053;-71
2023/05/02 13:50:40;;;;;;;5.15;1.30;;;;;;;;;;4961944;28;20710;-70
2023/05/02 13:53:06;;;;;;;3.17;1.35;;;;;;;;;;4959431;28;20868;-71
2023/05/02 13:55:32;;;;;;;2.90;1.00;;;11.70;99.90;;;;;;4964585;28;20093;-71
2023/05/02 13:57:58;;;;;;;4.57;1.20;;;;;;;;;;4980669;28;20030;-71
2023/05/02 14:00:24;;;;;;;4.00;1.65;;;;;;;;;;4959089;28;20078;-71
2023/05/02 14:02:50;;;;;;;5.20;1.20;;;;;;;;;;4981742;28;20463;-71
2023/05/02 14:05:15;;;;;;;5.72;1.30;;;11.40;99.90;;;;;;4958505;28;20089;-71
2023/05/02 14:07:41;;;;;;;2.67;1.45;;;;;;;;;;4960040;28;20050;-71
2023/05/02 14:10:07;;;;;;;4.82;1.67;;;11.60;99.90;;;;;;4942620;28;20135;-70